Time;durP1;ratioP1;P1;durP2;ratioP2;P2;SDS_P1;SDS_P2;PMS_P1;PMS_P2;Temp;Humidity;BMP_temperature;BMP_pressure;BME280_temperature;BME280_humidity;BME280_pressure;Samples;Min_cycle;Max_cycle;Signal;HPM_P1;HPM_P2
2023/11/28 00:01:17;;;;;;;11.00;7.90;;;;;;;5.62;62.45;92956.97;6130013;23;20024;-85
2023/11/28 00:03:43;;;;;;;12.52;7.88;;;;;;;5.45;63.29;92961.78;6099251;23;20006;-85
2023/11/28 00:06:15;;;;;;;11.43;7.82;;;;;;;5.59;62.34;92951.44;6099071;23;20020;-85
2023/11/28 00:08:40;;;;;;;9.45;6.57;;;;;;;5.55;62.86;92955.41;6074815;23;20015;-86
2023/11/28 00:16:06;;;;;;;11.35;7.57;;;;;;;5.61;62.65;92990.69;6124529;23;20021;-85
2023/11/28 00:18:32;;;;;;;9.98;6.70;;;;;;;5.65;62.46;92994.44;6075125;23;20025;-85
2023/11/28 00:20:57;;;;;;;12.07;6.95;;;;;;;5.72;62.31;92997.03;6098572;23;20013;-85
2023/11/28 00:23:23;;;;;;;11.38;7.60;;;;;;;5.71;62.24;93005.75;6051595;23;20083;-86
2023/11/28 00:25:48;;;;;;;11.05;7.22;;;;;;;5.51;63.19;92993.69;6050487;23;20104;-85
2023/11/28 00:28:14;;;;;;;9.15;6.70;;;;;;;5.57;62.43;92987.72;6098779;23;20016;-85
2023/11/28 00:30:40;;;;;;;9.57;6.75;;;;;;;5.48;62.72;92989.75;6074579;23;20014;-85
2023/11/28 00:33:08;;;;;;;10.02;6.90;;;;;;;5.37;62.88;92974.06;6098943;23;20068;-85
2023/11/28 00:35:33;;;;;;;10.32;6.85;;;;;;;5.45;62.48;92986.78;6051748;23;20097;-85
2023/11/28 00:37:59;;;;;;;12.50;7.80;;;;;;;5.45;62.16;92977.25;6074506;23;20038;-85
2023/11/28 00:40:28;;;;;;;15.13;9.43;;;;;;;5.37;62.24;92963.75;6074579;23;20021;-84
2023/11/28 00:42:54;;;;;;;14.35;9.10;;;;;;;5.06;63.42;92955.69;6053002;23;20089;-85
2023/11/28 00:45:24;;;;;;;8.73;6.15;;;;;;;5.28;62.65;92970.94;6074423;23;20080;-84
2023/11/28 00:47:50;;;;;;;7.55;5.60;;;;;;;5.28;62.31;92976.88;6075643;23;20017;-85
2023/11/28 00:50:17;;;;;;;8.43;6.22;;;;;;;5.15;62.48;92961.41;6074360;23;20005;-84
2023/11/28 00:55:08;;;;;;;7.60;5.63;;;;;;;5.14;62.82;92970.16;6127489;23;20026;-85
2023/11/28 00:57:34;;;;;;;7.78;5.95;;;;;;;5.09;63.15;92968.16;6075922;23;20014;-85
2023/11/28 00:59:59;;;;;;;8.10;5.57;;;;;;;5.12;62.92;92961.03;6075314;23;20037;-83
2023/11/28 01:02:25;;;;;;;12.55;8.10;;;;;;;5.13;62.65;92962.63;6098594;23;20021;-85
2023/11/28 01:04:50;;;;;;;13.02;8.50;;;;;;;5.14;62.61;92974.50;6098643;23;20010;-84
2023/11/28 01:09:52;;;;;;;6.97;5.25;;;;;;;5.16;62.24;92967.34;6124792;23;20022;-85
2023/11/28 01:12:19;;;;;;;27.90;15.85;;;;;;;5.17;62.43;92977.47;6097195;23;20017;-84
2023/11/28 01:14:45;;;;;;;15.00;8.90;;;;;;;5.05;62.67;92961.03;6121438;23;20040;-85
2023/11/28 01:17:10;;;;;;;12.27;6.90;;;;;;;4.98;63.52;92966.19;6096953;23;20018;-85
2023/11/28 01:19:38;;;;;;;33.90;19.63;;;;;;;5.18;62.46;92975.69;6094319;23;20031;-84
2023/11/28 01:24:29;;;;;;;4.65;3.63;;;;;;;4.96;63.19;92975.88;6132556;23;20022;-85
2023/11/28 01:26:57;;;;;;;17.42;9.48;;;;;;;5.11;62.69;92980.06;6097055;23;20073;-85
2023/11/28 01:29:23;;;;;;;79.38;35.60;;;;;;;5.01;62.90;92978.66;6074158;23;20024;-85
2023/11/28 01:31:48;;;;;;;5.47;3.92;;;;;;;4.99;63.58;92969.53;6074314;23;20013;-85
2023/11/28 01:34:14;;;;;;;3.50;2.50;;;;;;;5.14;62.13;92964.19;6074228;23;20017;-85
2023/11/28 01:36:40;;;;;;;2.05;1.70;;;;;;;5.32;61.87;92977.25;6097902;23;20073;-85
2023/11/28 01:39:07;;;;;;;1.67;1.38;;;;;;;5.26;62.26;92976.28;6073824;23;20088;-85
2023/11/28 01:41:34;;;;;;;5.25;2.08;;;;;;;5.13;62.33;92968.56;6073812;23;20014;-85
2023/11/28 01:44:06;;;;;;;19.17;9.45;;;;;;;5.06;62.84;92975.50;6074243;23;20014;-85
2023/11/28 01:46:36;;;;;;;4.72;2.70;;;;;;;4.99;62.78;92959.22;6074516;23;20085;-85
2023/11/28 01:49:03;;;;;;;2.28;1.30;;;;;;;5.08;62.42;92960.63;6097878;23;20005;-85
2023/11/28 01:51:30;;;;;;;1.40;0.90;;;;;;;5.46;61.29;92971.09;6098133;23;20010;-85
2023/11/28 01:56:25;;;;;;;1.10;1.00;;;;;;;5.13;62.82;92968.56;6110067;23;20026;-85
2023/11/28 01:58:54;;;;;;;1.10;1.00;;;;;;;4.91;63.42;92962.81;6073799;23;20069;-85
2023/11/28 02:01:21;;;;;;;1.55;1.17;;;;;;;4.95;62.76;92969.16;6097871;23;20002;-85
2023/11/28 02:03:51;;;;;;;3.58;2.30;;;;;;;4.86;63.15;92965.19;6097549;23;20010;-85
2023/11/28 02:08:44;;;;;;;1.80;1.30;;;;;;;5.12;62.32;92953.28;6130266;23;20014;-85
2023/11/28 02:11:10;;;;;;;1.73;1.30;;;;;;;4.84;63.81;92947.38;6098450;23;20024;-85
2023/11/28 02:13:36;;;;;;;1.38;1.00;;;;;;;4.68;64.27;92930.53;6097346;23;20030;-85
2023/11/28 02:16:14;;;;;;;16.67;7.90;;;;;;;4.82;63.83;92935.69;6098126;23;20093;-85
2023/11/28 02:18:41;;;;;;;15.15;8.48;;;;;;;4.95;63.80;92927.94;6097874;23;20006;-85
2023/11/28 02:23:35;;;;;;;5.47;3.60;;;;;;;5.20;63.02;92930.69;6127624;23;20030;-85
2023/11/28 02:26:25;;;;;;;3.75;2.75;;;;;;;5.43;62.68;92930.25;6097675;23;20010;-84
2023/11/28 02:28:51;;;;;;;2.45;1.75;;;;;;;5.06;63.69;92922.19;6097308;23;20033;-85
2023/11/28 02:31:18;;;;;;;10.23;6.13;;;;;;;4.99;63.56;92910.28;6098221;23;20006;-85
2023/11/28 02:33:44;;;;;;;3.78;2.58;;;;;;;5.19;63.55;92899.97;6097989;23;20025;-85
2023/11/28 02:36:09;;;;;;;4.53;3.55;;;;;;;5.48;62.53;92899.50;6097788;23;20033;-85
2023/11/28 02:38:35;;;;;;;7.60;5.90;;;;;;;5.43;63.07;92901.09;6097426;23;20010;-85
2023/11/28 02:41:01;;;;;;;4.53;3.03;;;;;;;5.26;63.38;92891.22;6097995;23;20013;-85
2023/11/28 02:43:27;;;;;;;8.70;5.50;;;;;;;5.39;63.00;92885.25;6098211;23;20022;-84
2023/11/28 02:45:56;;;;;;;8.95;5.88;;;;;;;5.55;62.61;92872.91;6073801;23;20088;-85
2023/11/28 02:48:22;;;;;;;2.30;1.92;;;;;;;5.32;63.36;92863.06;6096949;23;20061;-84
2023/11/28 02:50:49;;;;;;;5.45;3.95;;;;;;;5.40;63.73;92868.78;6097806;23;20010;-85
2023/11/28 02:53:17;;;;;;;4.15;3.40;;;;;;;5.61;63.38;92872.84;6099008;23;20029;-85
2023/11/28 02:55:43;;;;;;;3.63;3.05;;;;;;;5.73;62.99;92865.28;6074975;23;20018;-85
2023/11/28 02:58:11;;;;;;;4.05;3.30;;;;;;;5.77;62.80;92869.03;6099664;23;20002;-85
2023/11/28 03:00:37;;;;;;;3.28;2.50;;;;;;;5.77;62.79;92860.50;6075941;23;20088;-85
2023/11/28 03:03:03;;;;;;;3.83;2.60;;;;;;;5.93;62.33;92874.72;6099907;23;20092;-84
2023/11/28 03:05:29;;;;;;;4.20;2.97;;;;;;;5.73;62.15;92867.88;6100835;23;20014;-85
2023/11/28 03:07:55;;;;;;;24.75;3.42;;;;;;;5.66;62.27;92865.31;6103388;23;20092;-84
2023/11/28 03:10:21;;;;;;;218.75;10.27;;;;;;;4.63;65.54;92849.72;6076564;23;20052;-85
2023/11/28 03:12:46;;;;;;;6.40;3.75;;;;;;;4.92;65.12;92871.66;6076668;23;20006;-85
2023/11/28 03:15:14;;;;;;;5.60;4.00;;;;;;;5.14;63.67;92848.22;6075326;23;20014;-85
2023/11/28 03:17:39;;;;;;;5.43;3.80;;;;;;;5.35;63.79;92862.63;6097889;23;20013;-85
2023/11/28 03:20:06;;;;;;;4.97;3.35;;;;;;;5.28;63.95;92860.09;6075064;23;20034;-85
2023/11/28 03:22:32;;;;;;;4.20;3.20;;;;;;;5.20;64.15;92844.88;6099455;23;20035;-85
2023/11/28 03:25:07;;;;;;;4.40;2.92;;;;;;;5.69;62.76;92843.47;6099564;23;20022;-85
2023/11/28 03:27:36;;;;;;;5.32;3.42;;;;;;;5.38;63.95;92833.88;6099626;23;20032;-86
2023/11/28 03:30:02;;;;;;;6.38;3.20;;;;;;;5.45;63.86;92819.97;6098845;23;20021;-85
2023/11/28 03:32:27;;;;;;;3.63;3.05;;;;;;;5.69;63.01;92817.69;6130171;23;20026;-85
2023/11/28 03:34:53;;;;;;;5.28;3.58;;;;;;;5.73;63.64;92825.78;6099617;23;20018;-85
2023/11/28 03:37:21;;;;;;;4.45;3.17;;;;;;;5.90;63.62;92829.47;6099771;23;20014;-85
2023/11/28 03:39:47;;;;;;;5.57;3.75;;;;;;;5.78;63.72;92819.03;6099696;23;20062;-85
2023/11/28 03:42:12;;;;;;;5.13;3.70;;;;;;;6.08;63.11;92821.06;6099647;23;20034;-85
2023/11/28 03:44:38;;;;;;;4.20;3.35;;;;;;;6.04;63.30;92814.75;6099836;23;20072;-86
2023/11/28 03:49:38;;;;;;;4.70;3.13;;;;;;;6.10;63.05;92813.91;6124830;23;20022;-86
2023/11/28 03:52:04;;;;;;;3.92;3.10;;;;;;;6.21;62.85;92805.50;6075110;23;20014;-85
2023/11/28 03:54:30;;;;;;;4.32;3.13;;;;;;;6.26;62.94;92823.72;6098947;23;20002;-85
2023/11/28 03:56:55;;;;;;;4.20;3.00;;;;;;;6.17;63.38;92812.06;6075086;23;20017;-86
2023/11/28 03:59:21;;;;;;;3.78;3.25;;;;;;;6.25;62.90;92809.22;6075457;23;20002;-85
2023/11/28 04:01:46;;;;;;;5.28;3.20;;;;;;;6.34;62.54;92808.97;6129892;23;20053;-85
2023/11/28 04:04:12;;;;;;;3.97;2.80;;;;;;;6.43;62.65;92812.84;6074327;23;20036;-86
2023/11/28 04:06:37;;;;;;;4.30;2.90;;;;;;;6.36;62.65;92804.38;6074329;23;20014;-85
2023/11/28 04:09:04;;;;;;;3.40;2.72;;;;;;;6.20;63.08;92803.88;6075302;23;20036;-85
2023/11/28 04:11:29;;;;;;;5.13;3.65;;;;;;;6.40;62.52;92810.72;6099044;23;20063;-85
2023/11/28 04:13:55;;;;;;;3.75;3.15;;;;;;;6.51;62.60;92816.97;6127277;23;20018;-85
2023/11/28 04:16:20;;;;;;;3.35;2.65;;;;;;;6.35;62.97;92819.06;6103675;23;20048;-85
2023/11/28 04:18:52;;;;;;;4.53;2.80;;;;;;;6.29;63.17;92811.41;6103861;23;20099;-85
2023/11/28 04:21:21;;;;;;;3.97;2.80;;;;;;;6.47;62.87;92826.94;6128833;23;20016;-85
2023/11/28 04:23:50;;;;;;;3.35;2.65;;;;;;;6.45;62.68;92834.09;6128349;23;20008;-85
2023/11/28 04:26:16;;;;;;;3.60;2.67;;;;;;;6.48;62.76;92825.94;6103742;23;20017;-85
2023/11/28 04:31:18;;;;;;;3.42;2.65;;;;;;;6.53;62.26;92815.78;6124499;23;20025;-85
2023/11/28 04:36:11;;;;;;;3.97;3.10;;;;;;;6.48;62.74;92814.81;6127323;23;20089;-85
2023/11/28 04:38:37;;;;;;;4.30;3.28;;;;;;;6.68;62.46;92828.34;6116030;23;20021;-85
2023/11/28 04:41:02;;;;;;;3.78;2.92;;;;;;;6.81;62.18;92837.78;6103517;23;20018;-85
2023/11/28 04:43:28;;;;;;;51.70;4.03;;;;;;;6.77;61.60;92829.66;6127849;23;20044;-85
2023/11/28 04:45:54;;;;;;;17.15;4.20;;;;;;;6.67;61.49;92826.00;6128083;23;20017;-85
2023/11/28 04:48:20;;;;;;;269.48;11.50;;;;;;;6.50;61.67;92823.94;6127764;23;20005;-85
2023/11/28 04:50:45;;;;;;;194.52;9.02;;;;;;;5.95;63.90;92821.94;6103594;23;20013;-85
2023/11/28 04:53:14;;;;;;;141.02;7.75;;;;;;;6.08;62.70;92826.22;6127988;23;20013;-85
2023/11/28 04:55:39;;;;;;;85.85;6.78;;;;;;;6.10;62.94;92829.38;6127706;23;20005;-85
2023/11/28 04:58:05;;;;;;;124.38;8.70;;;;;;;6.09;63.08;92835.53;6127837;23;20009;-85
2023/11/28 05:08:06;;;;;;;6.35;4.18;;;;;;;5.86;64.67;92848.94;6123608;23;20028;-86
2023/11/28 05:10:34;;;;;;;6.68;4.30;;;;;;;5.98;64.40;92825.91;6097818;23;20010;-86
2023/11/28 05:20:40;;;;;;;5.40;4.05;;;;;;;6.28;64.01;92856.28;6112883;23;20025;-85
2023/11/28 05:23:05;;;;;;;4.60;3.53;;;;;;;6.41;63.82;92861.34;6125373;23;20017;-86
2023/11/28 05:25:32;;;;;;;4.70;3.60;;;;;;;6.20;64.37;92865.84;6148610;23;20002;-85
2023/11/28 05:27:57;;;;;;;13.88;8.02;;;;;;;6.50;63.65;92861.88;6147937;23;20013;-85
2023/11/28 05:30:26;;;;;;;5.25;3.83;;;;;;;6.55;63.25;92874.94;6098248;23;20010;-85
2023/11/28 05:32:52;;;;;;;5.20;3.55;;;;;;;6.46;63.76;92864.88;6122983;23;20097;-85
2023/11/28 05:35:20;;;;;;;5.38;3.88;;;;;;;6.63;63.21;92865.16;6122330;23;20037;-85
2023/11/28 05:40:11;;;;;;;6.35;3.80;;;;;;;6.52;63.57;92873.56;6126289;23;20025;-85
2023/11/28 05:42:36;;;;;;;5.82;3.97;;;;;;;6.57;63.22;92866.00;6097890;23;20022;-86
2023/11/28 05:45:02;;;;;;;4.97;3.53;;;;;;;6.63;63.28;92890.19;6099068;23;20034;-85
2023/11/28 05:47:27;;;;;;;5.10;3.85;;;;;;;6.80;62.89;92891.25;6106409;23;20021;-85
2023/11/28 05:54:53;;;;;;;5.30;3.80;;;;;;;6.78;63.32;92901.00;6123293;23;20022;-86
2023/11/28 05:57:19;;;;;;;6.72;4.20;;;;;;;6.85;63.04;92898.34;6097920;23;20014;-85
2023/11/28 05:59:44;;;;;;;6.65;4.78;;;;;;;6.74;63.32;92906.78;6123149;23;20006;-86
2023/11/28 06:02:10;;;;;;;8.98;4.88;;;;;;;6.53;63.62;92895.84;6122482;23;20096;-85
2023/11/28 06:04:35;;;;;;;6.30;4.13;;;;;;;7.08;62.31;92908.09;6122622;23;20053;-85
2023/11/28 06:07:01;;;;;;;7.97;5.10;;;;;;;6.68;63.18;92910.22;6098587;23;20073;-86
2023/11/28 06:09:28;;;;;;;6.40;4.60;;;;;;;6.76;63.23;92928.03;6122676;23;20010;-86
2023/11/28 06:22:04;;;;;;;7.45;4.88;;;;;;;6.80;63.65;92939.56;6130066;23;20021;-86
2023/11/28 06:24:30;;;;;;;7.13;4.85;;;;;;;6.46;64.80;92944.94;6097924;23;20018;-85
2023/11/28 06:34:34;;;;;;;6.47;4.40;;;;;;;6.67;64.03;92948.19;6100780;23;20029;-86
2023/11/28 06:37:03;;;;;;;7.10;4.38;;;;;;;6.94;63.26;92948.78;6124391;23;20009;-86
2023/11/28 06:39:29;;;;;;;7.10;4.97;;;;;;;6.98;62.99;92949.16;6124464;23;20097;-85
2023/11/28 06:41:55;;;;;;;7.00;4.80;;;;;;;7.01;63.51;92949.50;6124573;23;20025;-85
2023/11/28 06:46:47;;;;;;;7.05;5.40;;;;;;;7.02;62.93;92966.59;6129670;23;20013;-86
2023/11/28 06:49:13;;;;;;;9.50;5.65;;;;;;;7.07;62.40;92960.03;6076040;23;20022;-86
2023/11/28 06:51:39;;;;;;;6.95;4.93;;;;;;;6.95;63.20;92958.13;6099962;23;20020;-86
2023/11/28 06:54:04;;;;;;;8.43;5.15;;;;;;;6.92;63.51;92979.19;6099741;23;20002;-86
2023/11/28 07:11:55;;;;;;;6.43;4.53;;;;;;;6.97;63.61;92994.09;6125245;23;20026;-86
2023/11/28 07:19:31;;;;;;;4.53;3.00;;;;;;;7.28;62.29;93013.94;6100679;23;20033;-85
2023/11/28 07:24:31;;;;;;;2.67;1.63;;;;;;;7.39;61.47;93018.41;6146091;23;20010;-86
2023/11/28 07:26:57;;;;;;;2.55;1.60;;;;;;;7.36;61.84;93012.88;6080165;23;20048;-85
2023/11/28 07:29:23;;;;;;;2.00;1.20;;;;;;;7.11;62.39;93002.53;6129362;23;20010;-86
2023/11/28 07:31:48;;;;;;;1.30;0.88;;;;;;;7.22;62.21;93017.38;6129099;23;20010;-86
2023/11/28 07:34:13;;;;;;;1.90;0.90;;;;;;;7.34;62.24;93031.19;6129028;23;20001;-85
2023/11/28 07:36:43;;;;;;;1.58;0.80;;;;;;;7.37;61.90;93022.22;6129113;23;20021;-85
2023/11/28 07:39:09;;;;;;;0.60;0.60;;;;;;;7.29;62.15;93023.28;6127762;23;20013;-85
2023/11/28 07:41:34;;;;;;;0.70;0.60;;;;;;;7.31;62.33;93039.38;6128854;23;20040;-86
2023/11/28 07:44:00;;;;;;;0.80;0.60;;;;;;;7.42;61.88;93037.88;6104484;23;20006;-86
2023/11/28 07:46:26;;;;;;;0.98;0.70;;;;;;;7.21;62.78;93028.69;6104255;23;20002;-86
2023/11/28 07:48:52;;;;;;;0.65;0.60;;;;;;;7.23;62.89;93037.84;6128408;23;20009;-85
2023/11/28 07:51:17;;;;;;;1.60;0.55;;;;;;;7.33;62.15;93026.22;6128410;23;20016;-86
2023/11/28 07:53:43;;;;;;;0.85;0.77;;;;;;;7.22;62.95;93040.63;6128803;23;20061;-85
2023/11/28 07:56:09;;;;;;;0.80;0.70;;;;;;;7.22;62.54;93038.84;6128363;23;20017;-85
2023/11/28 08:01:00;;;;;;;0.73;0.73;;;;;;;7.19;62.56;93044.41;6126884;23;20034;-86
2023/11/28 08:03:30;;;;;;;1.45;0.90;;;;;;;7.34;62.30;93051.09;6099416;23;20013;-86
2023/11/28 08:05:55;;;;;;;1.00;0.90;;;;;;;7.27;62.33;93040.00;6075329;23;20069;-85
2023/11/28 08:08:21;;;;;;;0.98;0.88;;;;;;;7.38;62.28;93050.44;6098946;23;20009;-85
2023/11/28 08:10:48;;;;;;;1.75;0.90;;;;;;;7.38;62.44;93050.44;6098997;23;20077;-85
2023/11/28 08:13:15;;;;;;;1.40;0.90;;;;;;;7.52;61.92;93042.56;6110811;23;20018;-85
2023/11/28 08:15:44;;;;;;;1.13;0.90;;;;;;;7.52;61.96;93047.75;6074095;23;20053;-85
2023/11/28 08:18:11;;;;;;;1.17;1.05;;;;;;;7.39;62.04;93039.09;6099152;23;20246;-85
2023/11/28 08:20:36;;;;;;;1.83;1.08;;;;;;;7.41;62.60;93047.44;6098851;23;20005;-85
2023/11/28 08:23:02;;;;;;;2.08;1.02;;;;;;;7.73;61.13;93055.16;6098652;23;20069;-86
2023/11/28 08:33:13;;;;;;;1.90;1.02;;;;;;;7.64;61.95;93057.19;6124758;23;20021;-85
2023/11/28 08:35:41;;;;;;;1.23;1.00;;;;;;;7.61;61.83;93056.81;6099368;23;20024;-85
2023/11/28 08:38:07;;;;;;;1.10;1.00;;;;;;;7.62;62.15;93063.59;6098738;23;20009;-85
2023/11/28 08:40:35;;;;;;;1.15;1.00;;;;;;;7.70;61.81;93076.25;6074668;23;20048;-85
2023/11/28 08:43:00;;;;;;;1.17;1.00;;;;;;;7.48;62.57;93072.47;6098496;23;20009;-85
2023/11/28 08:50:37;;;;;;;1.00;0.68;;;;;;;7.64;62.55;93077.91;6099071;23;20018;-86
2023/11/28 08:53:03;;;;;;;0.63;0.63;;;;;;;7.52;62.77;93089.94;6148022;23;20002;-85
2023/11/28 08:57:54;;;;;;;1.30;1.20;;;;;;;7.80;62.32;93099.06;6126852;23;20022;-86
2023/11/28 09:00:22;;;;;;;1.52;1.42;;;;;;;7.64;62.48;93105.56;6122798;23;20018;-85
2023/11/28 09:02:47;;;;;;;1.42;1.20;;;;;;;7.61;63.28;93113.75;6098161;23;20040;-85
2023/11/28 09:05:14;;;;;;;1.80;1.70;;;;;;;7.68;62.87;93119.66;6103615;23;20005;-85
2023/11/28 09:10:05;;;;;;;2.20;1.70;;;;;;;7.59;62.69;93115.75;6122813;23;20029;-86
2023/11/28 09:12:31;;;;;;;1.60;1.40;;;;;;;7.54;63.38;93118.16;6073763;23;20016;-86
2023/11/28 09:14:56;;;;;;;1.20;1.10;;;;;;;7.79;62.38;93125.97;6073799;23;20010;-85
2023/11/28 09:17:24;;;;;;;1.77;1.02;;;;;;;7.81;62.41;93132.50;6097643;23;20002;-85
2023/11/28 09:22:15;;;;;;;1.75;1.35;;;;;;;7.87;62.26;93145.59;6098898;23;20026;-85
2023/11/28 09:27:07;;;;;;;1.90;1.05;;;;;;;7.76;62.61;93152.25;6126358;23;20018;-85
2023/11/28 09:34:45;;;;;;;1.38;1.05;;;;;;;7.68;63.23;93163.66;6099730;23;20018;-86
2023/11/28 09:37:12;;;;;;;1.33;1.17;;;;;;;7.76;62.94;93175.53;6097694;23;20028;-86
2023/11/28 09:39:38;;;;;;;1.20;0.73;;;;;;;7.56;61.94;93188.63;6147460;23;20010;-85
2023/11/28 09:42:09;;;;;;;0.60;0.50;;;;;;;7.58;60.99;93204.72;6122771;23;20010;-86
2023/11/28 09:44:35;;;;;;;0.93;0.40;;;;;;;7.61;59.91;93223.19;6147794;23;20002;-85
2023/11/28 09:47:10;;;;;;;0.60;0.40;;;;;;;7.08;60.84;93233.00;6147210;23;20010;-85
2023/11/28 09:49:41;;;;;;;0.68;0.38;;;;;;;6.89;61.18;93235.44;6147396;23;20017;-85
2023/11/28 09:52:08;;;;;;;0.55;0.32;;;;;;;6.98;60.58;93247.16;6147705;23;20037;-85
2023/11/28 09:54:37;;;;;;;0.93;0.60;;;;;;;6.55;62.12;93250.25;6147293;23;20006;-85
2023/11/28 09:57:04;;;;;;;0.40;0.40;;;;;;;6.74;61.48;93237.47;6122444;23;20018;-85
2023/11/28 09:59:30;;;;;;;0.43;0.40;;;;;;;6.89;61.06;93248.38;6147203;23;20006;-85
2023/11/28 10:02:01;;;;;;;0.45;0.40;;;;;;;6.88;60.83;93249.38;6122503;23;20014;-85
2023/11/28 10:04:27;;;;;;;0.60;0.32;;;;;;;6.93;61.16;93241.81;6147935;23;20002;-86
2023/11/28 10:06:52;;;;;;;0.50;0.50;;;;;;;6.87;61.55;93255.53;6147223;23;20008;-86
2023/11/28 10:16:53;;;;;;;0.38;0.28;;;;;;;6.87;61.63;93275.41;6122124;23;20025;-85
2023/11/28 10:34:56;;;;;;;0.60;0.50;;;;;;;7.32;60.97;93296.97;6137193;23;20026;-86
2023/11/28 10:37:22;;;;;;;0.73;0.60;;;;;;;7.42;60.22;93307.69;6126541;23;20009;-86
2023/11/28 10:39:52;;;;;;;0.60;0.60;;;;;;;7.13;61.58;93311.53;6102718;23;20005;-85
2023/11/28 10:42:18;;;;;;;0.80;0.68;;;;;;;7.22;61.18;93315.50;6125403;23;20013;-85
2023/11/28 10:44:45;;;;;;;0.90;0.60;;;;;;;7.35;60.79;93309.50;6126668;23;20010;-85
2023/11/28 10:47:12;;;;;;;0.68;0.60;;;;;;;7.24;61.02;93307.53;6098636;23;20025;-85
2023/11/28 10:49:40;;;;;;;0.93;0.73;;;;;;;7.24;61.88;93320.47;6097325;23;20021;-86
2023/11/28 10:57:13;;;;;;;1.05;0.70;;;;;;;7.32;61.60;93325.41;6141393;23;20033;-85
2023/11/28 10:59:42;;;;;;;1.67;0.70;;;;;;;7.41;60.71;93329.34;6096807;23;20041;-85
2023/11/28 11:04:35;;;;;;;0.70;0.60;;;;;;;7.25;61.60;93334.97;6140316;23;20080;-85
2023/11/28 11:07:03;;;;;;;1.00;0.90;;;;;;;7.36;61.56;93330.97;6097054;23;20394;-85
2023/11/28 11:09:29;;;;;;;1.20;0.60;;;;;;;7.28;62.03;93347.50;6096922;23;20017;-86
2023/11/28 11:11:56;;;;;;;1.10;0.70;;;;;;;7.21;62.13;93351.88;6097963;23;20090;-86
2023/11/28 11:17:11;;;;;;;1.05;0.68;;;;;;;7.30;61.71;93360.22;6133439;23;20089;-85
2023/11/28 11:19:38;;;;;;;1.42;0.70;;;;;;;7.36;61.72;93360.19;6098988;23;20001;-85
2023/11/28 11:22:09;;;;;;;0.98;0.80;;;;;;;7.40;61.29;93369.13;6098430;23;20013;-85
2023/11/28 11:24:37;;;;;;;1.08;0.98;;;;;;;7.15;61.60;93357.88;6099377;23;20053;-86
2023/11/28 11:27:03;;;;;;;2.38;1.08;;;;;;;7.11;62.17;93354.91;6074882;23;20010;-85
2023/11/28 11:29:31;;;;;;;1.70;0.85;;;;;;;7.25;61.63;93378.94;6099155;23;20021;-85
2023/11/28 11:31:58;;;;;;;2.00;0.90;;;;;;;7.33;60.29;93383.09;6098850;23;20006;-85
2023/11/28 11:39:37;;;;;;;1.48;1.00;;;;;;;6.95;61.55;93378.56;6124942;23;20021;-85
2023/11/28 11:44:31;;;;;;;0.88;0.88;;;;;;;7.16;61.10;93396.47;6127119;23;20026;-85
2023/11/28 11:47:19;;;;;;;1.33;1.20;;;;;;;7.23;60.31;93381.75;6099250;23;20017;-85
2023/11/28 11:49:46;;;;;;;1.48;1.00;;;;;;;7.37;60.68;93387.66;6101892;23;20006;-85
2023/11/28 11:54:48;;;;;;;2.47;2.28;;;;;;;7.24;61.18;93408.38;6127758;23;20092;-85
2023/11/28 11:57:15;;;;;;;1.77;1.60;;;;;;;7.14;61.05;93403.63;6098913;23;20010;-85
2023/11/28 11:59:43;;;;;;;1.58;1.48;;;;;;;7.23;60.83;93409.38;6098920;23;20014;-85
2023/11/28 12:02:10;;;;;;;2.35;1.42;;;;;;;7.15;60.26;93407.78;6099016;23;20045;-85
2023/11/28 12:07:11;;;;;;;1.75;1.63;;;;;;;7.09;60.12;93429.28;6128916;23;20009;-86
2023/11/28 12:09:37;;;;;;;1.30;1.20;;;;;;;7.00;59.63;93430.47;6099162;23;20061;-85
2023/11/28 12:12:06;;;;;;;1.30;1.20;;;;;;;6.88;59.87;93437.25;6098796;23;20005;-85
2023/11/28 12:14:36;;;;;;;1.30;1.20;;;;;;;6.64;60.45;93447.94;6098133;23;20017;-85
2023/11/28 12:17:02;;;;;;;1.10;1.00;;;;;;;6.88;59.07;93437.25;6098697;23;20009;-85
2023/11/28 14:47:58;;;;;;;3.28;2.67;;;;;;;5.37;61.60;93701.88;6132397;23;20061;-86
2023/11/28 14:50:25;;;;;;;3.00;2.60;;;;;;;5.60;60.30;93703.50;6100162;23;20081;-85
2023/11/28 15:53:33;;;;;;;5.68;4.30;;;;;;;4.70;63.64;93818.78;6118172;23;20034;-86
2023/11/28 15:55:59;;;;;;;6.25;4.45;;;;;;;4.84;63.16;93819.78;6047177;23;20030;-85
2023/11/28 16:08:48;;;;;;;5.80;4.78;;;;;;;5.07;61.99;93832.59;6099987;23;20036;-86
2023/11/28 17:16:17;;;;;;;7.22;6.15;;;;;;;5.28;60.36;93927.25;6107643;23;20132;-86
2023/11/28 17:18:43;;;;;;;7.05;5.82;;;;;;;5.61;59.60;93934.63;6098748;23;20044;-85
2023/11/28 17:21:16;;;;;;;7.10;5.80;;;;;;;5.43;59.96;93932.41;6098483;23;20018;-86
2023/11/28 17:28:45;;;;;;;7.95;6.63;;;;;;;5.31;60.42;93929.47;6077124;23;20026;-85
2023/11/28 17:31:11;;;;;;;7.13;6.28;;;;;;;5.22;60.58;93909.91;6122737;23;20044;-85
2023/11/28 17:33:36;;;;;;;8.10;6.57;;;;;;;5.18;60.81;93939.56;6122035;23;20009;-85
2023/11/28 17:36:03;;;;;;;8.32;6.97;;;;;;;5.25;60.73;93941.31;6123055;23;20006;-85
2023/11/28 17:38:31;;;;;;;7.63;6.30;;;;;;;5.20;61.06;93943.59;6121881;23;20006;-85
2023/11/28 17:40:58;;;;;;;8.23;6.38;;;;;;;5.29;60.47;93947.72;6122961;23;20041;-85
2023/11/28 17:43:25;;;;;;;9.32;6.43;;;;;;;5.27;60.27;93934.19;6098374;23;20065;-86
2023/11/28 17:51:42;;;;;;;7.68;5.93;;;;;;;5.10;60.53;93963.66;6117452;23;20030;-86
2023/11/28 17:54:07;;;;;;;6.90;5.93;;;;;;;5.57;58.89;93972.09;6098065;23;20026;-86
2023/11/28 17:56:33;;;;;;;8.35;6.72;;;;;;;5.54;59.59;93980.16;6098344;23;20045;-85
2023/11/28 17:58:59;;;;;;;8.68;7.22;;;;;;;5.24;60.41;93970.63;6097279;23;20053;-86
2023/11/28 18:03:50;;;;;;;7.57;6.20;;;;;;;5.11;60.26;93969.63;6114474;23;20030;-86
2023/11/28 18:06:16;;;;;;;8.27;6.68;;;;;;;4.96;61.50;93974.75;6098150;23;20020;-85
2023/11/28 18:08:41;;;;;;;8.07;6.85;;;;;;;5.08;61.22;93981.88;6097621;23;20013;-86
2023/11/28 18:11:09;;;;;;;8.60;6.78;;;;;;;5.15;60.75;93988.91;6096224;23;20025;-85
2023/11/28 18:13:38;;;;;;;9.20;7.03;;;;;;;5.08;61.06;93976.72;6073206;23;20013;-86
2023/11/28 18:23:30;;;;;;;9.10;7.43;;;;;;;5.23;60.64;93988.84;6093114;23;20067;-86
2023/11/28 18:26:01;;;;;;;9.15;7.00;;;;;;;5.16;60.63;93995.66;6092979;23;20010;-86
2023/11/28 18:28:26;;;;;;;8.20;6.65;;;;;;;5.22;60.14;93992.41;6093616;23;20007;-86
2023/11/28 18:30:52;;;;;;;8.68;6.85;;;;;;;5.27;60.01;93995.25;6093816;23;20021;-86
2023/11/28 18:35:54;;;;;;;8.77;6.68;;;;;;;5.41;59.60;94004.00;6110868;23;20033;-86
2023/11/28 19:11:50;;;;;;;10.82;8.18;;;;;;;5.02;60.67;94023.00;6126369;23;20058;-86
2023/11/28 20:18:13;;;;;;;19.48;10.82;;;;;;;4.28;63.44;94082.63;6129680;23;20022;-86
2023/11/28 21:01:35;;;;;;;24.60;19.23;;;;;;;4.53;61.69;94072.25;6125431;23;20042;-86
2023/11/28 21:04:03;;;;;;;19.75;13.73;;;;;;;4.53;61.05;94069.66;6122940;23;20021;-86
2023/11/28 21:06:29;;;;;;;14.13;10.27;;;;;;;4.53;61.08;94073.03;6079473;23;20010;-85
2023/11/28 21:08:54;;;;;;;15.07;10.13;;;;;;;4.70;60.36;94086.63;6103272;23;20013;-85
2023/11/28 21:13:48;;;;;;;14.17;9.20;;;;;;;4.52;61.39;94078.38;6138620;23;20049;-84
2023/11/28 21:16:18;;;;;;;16.23;11.07;;;;;;;4.43;60.56;94082.75;6098471;23;20240;-85
2023/11/28 21:21:11;;;;;;;13.23;8.77;;;;;;;4.60;60.65;94081.69;6111620;23;20057;-85
2023/11/28 21:23:37;;;;;;;12.65;8.35;;;;;;;4.61;60.20;94074.78;6098586;23;20002;-85
2023/11/28 21:26:05;;;;;;;14.05;8.88;;;;;;;4.63;60.28;94085.72;6098442;23;20002;-86
2023/11/28 21:28:31;;;;;;;13.48;8.95;;;;;;;4.64;60.18;94092.47;6098507;23;20012;-86
2023/11/28 21:33:34;;;;;;;11.70;8.27;;;;;;;4.58;60.16;94083.63;6099733;23;20034;-86
2023/11/28 21:36:09;;;;;;;12.43;8.63;;;;;;;4.43;59.49;94085.31;6147628;23;20041;-85
2023/11/28 21:38:35;;;;;;;14.25;9.27;;;;;;;4.38;60.40;94092.72;6122339;23;20021;-85
2023/11/28 21:41:07;;;;;;;14.55;9.45;;;;;;;4.44;60.72;94084.38;6122325;23;20006;-85
2023/11/28 21:48:36;;;;;;;12.18;8.13;;;;;;;4.10;60.22;94091.38;6153009;23;20028;-85
2023/11/28 21:51:02;;;;;;;13.27;8.48;;;;;;;4.39;60.54;94102.88;6126225;23;20041;-86
2023/11/28 21:53:28;;;;;;;13.98;8.80;;;;;;;4.44;59.63;94094.66;6150123;23;20072;-86
2023/11/28 21:55:54;;;;;;;11.43;7.90;;;;;;;4.43;59.48;94096.41;6152125;23;20009;-85
2023/11/28 21:58:20;;;;;;;11.60;7.75;;;;;;;4.74;58.07;94085.34;6151672;23;20011;-86
2023/11/28 22:03:11;;;;;;;10.38;7.45;;;;;;;4.80;57.76;94089.81;6122962;23;20032;-85
2023/11/28 22:05:39;;;;;;;12.68;9.45;;;;;;;4.64;59.32;94097.63;6098220;23;20017;-85
2023/11/28 22:08:05;;;;;;;11.48;8.43;;;;;;;4.68;58.72;94094.56;6127451;23;20008;-85